Aeroporto :
LOGIN :

Iscrizione | Disclaimer

   EN    FR    IT 

 










Sommario :    VFR   VFR Marginale   IFR   IFR Intensivo   IFR Molto Intensivo
Visibilità : 
Base nubi : 
>= 8 km
>= 3000ft
5 / 8 km
1000 / 3000 ft
1500m / 5 km
500 / 1000 ft
800 / 1500m
200 / 500 ft
< 800m
< 200 ft
Simboli :   Temporali  Nebbia  Neve Forte  Precipitazioni Forti  Vento > 20 kt
SIGMETs :   Varie  Temporali  Ghiacco  Turbolenza  Onda orograficha  Ceneri Vulcaniche






- Altitudine del aeroporto : 146 ft
- Codice IATA : RKE


EKRK - Roskilde Tune

ULTIMO METAR :
  • 210150Z AUTO 27017G27KT 9999 OVC011/// 06/03 Q1035

METARs OBSOLETI :
  • 210120Z AUTO 27015KT 9999 OVC013/// 06/03 Q1035
  • 210050Z AUTO 27017KT 9999 OVC013/// 06/03 Q1035
  • 210020Z AUTO 26017KT 9999 OVC013/// 06/03 Q1036
  • 202350Z AUTO 27016KT 9999 OVC013/// 06/04 Q1036
  • 202320Z AUTO 27017KT 9999 OVC013/// 06/04 Q1036

TAF TAF EKRK
Valido dal 21 a 00 ore il 21 a 09 ore UTC


202256Z 2100/2109 27018KT 9999 BKN012
TEMPO 2100/2109 BKN008



MetMap, La meteo Aeronautica in un colpo d'occhio ! - Copyright ORBIFLY Dicembre 2007 - Disclaimer

ORBIFLY MET'MAP TEAM :

Programmazione e sviluppo : Alexandra Zaïnal
Concezione : Baudouin d'Aumeries
Aiuto per la programmazione : Marc-Olivier Méhu
Supporto tecnico e logistico : Manuel Goepfert
Aiuto per la traduzione : Arnaldo La Scala

Contatto : metmap@orbifly.com




FONTI E CREDITI :

   NOAA